createdAt,value
2018-07-15T00:01:43.332Z,188.57
2018-07-15T00:04:14.604Z,181.80
2018-07-15T00:06:45.972Z,182.07
2018-07-15T00:09:17.211Z,177.55
2018-07-15T00:11:48.582Z,178.35
2018-07-15T00:14:22.295Z,177.53
2018-07-15T00:16:54.138Z,178.40
2018-07-15T00:19:25.490Z,183.55
2018-07-15T00:21:56.736Z,179.12
2018-07-15T00:24:28.021Z,182.17
2018-07-15T00:26:59.513Z,178.85
2018-07-15T00:29:30.840Z,174.30
2018-07-15T00:32:02.680Z,173.87
2018-07-15T00:34:34.023Z,178.15
2018-07-15T00:37:05.230Z,176.00
2018-07-15T00:39:36.541Z,177.85
2018-07-15T00:42:07.875Z,176.63
2018-07-15T00:44:39.007Z,177.43
2018-07-15T00:47:10.214Z,181.87
2018-07-15T00:49:41.453Z,181.72
2018-07-15T00:52:12.777Z,180.12
2018-07-15T00:54:43.972Z,180.10
2018-07-15T00:57:15.479Z,179.68
2018-07-15T00:59:46.890Z,181.28
2018-07-15T01:02:19.041Z,183.95
2018-07-15T01:04:50.986Z,180.45
2018-07-15T01:07:22.508Z,185.12
2018-07-15T01:09:53.666Z,177.27
2018-07-15T01:12:25.501Z,179.00
2018-07-15T01:14:56.751Z,178.23
2018-07-15T01:17:28.007Z,177.95
2018-07-15T01:19:59.371Z,177.65
2018-07-15T01:22:30.598Z,179.60
2018-07-15T01:25:03.533Z,176.05
2018-07-15T01:27:35.555Z,177.55
2018-07-15T01:30:06.764Z,177.35
2018-07-15T01:32:38.201Z,178.35
2018-07-15T01:35:09.373Z,176.72
2018-07-15T01:37:41.374Z,178.70
2018-07-15T01:40:12.615Z,175.50
2018-07-15T01:42:44.251Z,184.72
2018-07-15T01:45:16.466Z,178.42
2018-07-15T01:47:48.498Z,176.97
2018-07-15T01:50:20.466Z,176.00
2018-07-15T01:52:52.760Z,175.38
2018-07-15T01:55:23.779Z,177.15
2018-07-15T01:57:54.994Z,177.47
2018-07-15T02:00:26.645Z,177.62
2018-07-15T02:02:57.790Z,173.15
2018-07-15T02:05:29.031Z,176.82
2018-07-15T02:08:00.229Z,174.90
2018-07-15T02:10:32.033Z,175.12
2018-07-15T02:13:04.312Z,175.12
2018-07-15T02:15:35.601Z,178.30
2018-07-15T02:18:07.717Z,178.02
2018-07-15T02:20:39.651Z,177.10
2018-07-15T02:23:11.097Z,176.37
2018-07-15T02:25:42.547Z,176.12
2018-07-15T02:28:13.772Z,179.27
2018-07-15T02:30:45.165Z,182.53
2018-07-15T02:33:21.441Z,174.50
2018-07-15T02:35:52.582Z,178.18
2018-07-15T02:38:23.907Z,180.00
2018-07-15T02:40:55.152Z,175.40
2018-07-15T02:43:26.827Z,176.35
2018-07-15T02:45:57.996Z,174.62
2018-07-15T02:48:29.839Z,171.35
2018-07-15T02:53:58.888Z,174.10
2018-07-15T02:56:38.228Z,174.25
2018-07-15T02:59:09.704Z,170.17
2018-07-15T03:01:40.887Z,172.78
2018-07-15T03:04:12.059Z,171.53
2018-07-15T03:06:43.121Z,175.70
2018-07-15T03:09:14.298Z,173.35
2018-07-15T03:11:45.890Z,170.95
2018-07-15T03:14:17.014Z,180.07
2018-07-15T03:16:48.305Z,197.22
2018-07-15T03:19:19.761Z,178.93
2018-07-15T03:21:51.066Z,179.42
2018-07-15T03:24:22.475Z,174.62
2018-07-15T03:26:53.640Z,172.43
2018-07-15T03:29:25.223Z,173.00
2018-07-15T03:31:56.509Z,170.50
2018-07-15T03:34:27.684Z,171.98
2018-07-15T03:36:59.079Z,170.92
2018-07-15T03:39:30.283Z,167.98
2018-07-15T03:42:02.560Z,171.18
2018-07-15T03:44:33.932Z,168.52
2018-07-15T03:47:05.015Z,169.53
2018-07-15T03:49:36.481Z,177.00
2018-07-15T03:52:07.719Z,177.12
2018-07-15T03:54:39.541Z,168.47
2018-07-15T03:57:10.737Z,176.35
2018-07-15T03:59:41.890Z,171.10
2018-07-15T04:02:13.077Z,168.68
2018-07-15T04:04:44.208Z,170.40
2018-07-15T04:07:15.416Z,172.82
2018-07-15T04:09:46.755Z,171.80
2018-07-15T04:12:17.903Z,171.80
2018-07-15T04:14:49.486Z,168.43
2018-07-15T04:17:20.743Z,171.22
2018-07-15T04:19:52.271Z,172.30
2018-07-15T04:22:23.323Z,173.60
2018-07-15T04:24:54.847Z,171.05
2018-07-15T04:27:26.056Z,171.05
2018-07-15T04:29:57.184Z,174.18
2018-07-15T04:32:28.427Z,172.22
2018-07-15T04:34:59.616Z,173.25
2018-07-15T04:37:31.136Z,170.57
2018-07-15T04:40:02.635Z,170.62
2018-07-15T04:42:33.736Z,172.95
2018-07-15T04:45:07.704Z,172.07
2018-07-15T04:47:38.835Z,174.57
2018-07-15T04:50:10.079Z,173.55
2018-07-15T04:52:41.644Z,178.42
2018-07-15T04:55:16.397Z,171.62
2018-07-15T04:57:48.062Z,172.25
2018-07-15T05:00:21.879Z,173.15
2018-07-15T05:02:53.022Z,172.07
2018-07-15T05:05:26.293Z,177.68
2018-07-15T05:07:57.389Z,176.20
2018-07-15T05:10:28.676Z,174.82
2018-07-15T05:13:00.860Z,173.50
2018-07-15T05:15:34.106Z,175.87
2018-07-15T05:18:06.224Z,174.27
2018-07-15T05:20:38.255Z,177.97
2018-07-15T05:23:10.597Z,176.32
2018-07-15T05:25:42.151Z,178.05
2018-07-15T05:28:13.402Z,174.27
2018-07-15T05:30:44.625Z,176.10
2018-07-15T05:33:15.850Z,177.53
2018-07-15T05:35:47.065Z,177.30
2018-07-15T05:38:18.254Z,182.65
2018-07-15T05:40:49.774Z,179.10
2018-07-15T05:43:20.938Z,181.70
2018-07-15T05:45:52.731Z,179.60
2018-07-15T05:48:23.926Z,182.65
2018-07-15T05:50:55.115Z,185.30
2018-07-15T05:53:26.638Z,183.93
2018-07-15T05:55:57.783Z,184.95
2018-07-15T05:58:29.033Z,184.25
2018-07-15T06:01:00.692Z,182.78
2018-07-15T06:03:31.914Z,185.82
2018-07-15T06:06:03.152Z,184.72
2018-07-15T06:08:34.415Z,195.38
2018-07-15T06:11:05.528Z,209.27
2018-07-15T06:13:36.788Z,192.32
2018-07-15T06:16:07.883Z,190.05
2018-07-15T06:18:39.031Z,196.45
2018-07-15T06:21:10.338Z,192.62
2018-07-15T06:23:41.605Z,180.67
2018-07-15T06:26:12.863Z,185.05
2018-07-15T06:28:43.955Z,185.60
2018-07-15T06:31:15.317Z,187.50
2018-07-15T06:33:46.731Z,182.75
2018-07-15T06:36:18.019Z,193.10
2018-07-15T06:38:49.107Z,186.45
2018-07-15T06:41:20.436Z,185.70
2018-07-15T06:43:51.711Z,184.60
2018-07-15T06:46:22.942Z,182.27
2018-07-15T06:48:54.211Z,187.35
2018-07-15T06:51:25.578Z,186.20
2018-07-15T06:53:56.942Z,187.05
2018-07-15T06:56:28.159Z,195.95
2018-07-15T06:58:59.265Z,191.73
2018-07-15T07:01:30.824Z,188.45
2018-07-15T07:04:02.069Z,188.50
2018-07-15T07:06:33.490Z,189.07
2018-07-15T07:09:05.784Z,191.92
2018-07-15T07:11:38.438Z,188.80
2018-07-15T07:14:10.077Z,180.72
2018-07-15T07:16:41.569Z,183.70
2018-07-15T07:19:12.814Z,183.10
2018-07-15T07:21:44.069Z,183.32
2018-07-15T07:24:17.437Z,187.88
2018-07-15T07:26:48.863Z,183.60
2018-07-15T07:29:19.990Z,190.00
2018-07-15T07:31:51.249Z,189.00
2018-07-15T07:34:23.009Z,186.57
2018-07-15T07:36:54.903Z,187.90
2018-07-15T07:39:26.053Z,186.35
2018-07-15T07:41:57.385Z,190.30
2018-07-15T07:44:28.587Z,189.93
2018-07-15T07:46:59.867Z,186.75
2018-07-15T07:49:31.008Z,193.45
2018-07-15T07:52:03.567Z,189.85
2018-07-15T07:54:34.667Z,192.10
2018-07-15T07:57:07.711Z,193.15
2018-07-15T07:59:40.071Z,188.93
2018-07-15T08:02:15.507Z,183.40
2018-07-15T08:04:46.758Z,188.47
2018-07-15T08:07:18.043Z,191.40
2018-07-15T08:10:03.577Z,192.13
2018-07-15T08:12:36.179Z,190.05
2018-07-15T08:15:07.575Z,196.22
2018-07-15T08:17:38.843Z,188.35
2018-07-15T08:20:09.935Z,195.28
2018-07-15T08:22:41.197Z,197.50
2018-07-15T08:25:12.876Z,192.68
2018-07-15T08:27:45.524Z,196.32
2018-07-15T08:30:28.992Z,191.95
2018-07-15T08:33:00.356Z,190.62
2018-07-15T08:35:32.646Z,193.28
2018-07-15T08:38:05.660Z,190.55
2018-07-15T08:40:36.857Z,191.53
2018-07-15T08:43:09.662Z,191.98
2018-07-15T08:45:42.199Z,188.90
2018-07-15T08:48:13.397Z,192.22
2018-07-15T08:50:44.946Z,190.80
2018-07-15T08:53:16.008Z,194.85
2018-07-15T08:55:47.212Z,195.38
2018-07-15T08:58:19.697Z,195.07
2018-07-15T09:00:52.985Z,187.65
2018-07-15T09:03:24.212Z,197.60
2018-07-15T09:05:55.928Z,200.57
2018-07-15T09:08:27.108Z,198.87
2018-07-15T09:10:58.254Z,194.20
2018-07-15T09:13:29.516Z,193.40
2018-07-15T09:16:00.559Z,200.30
2018-07-15T09:18:32.118Z,203.52
2018-07-15T09:21:03.416Z,203.00
2018-07-15T09:23:34.640Z,196.78
2018-07-15T09:26:05.690Z,200.70
2018-07-15T09:28:36.794Z,201.25
2018-07-15T09:31:08.039Z,200.75
2018-07-15T09:33:39.323Z,212.65
2018-07-15T09:36:10.591Z,202.80
2018-07-15T09:38:42.206Z,200.20
2018-07-15T09:41:13.522Z,208.43
2018-07-15T09:43:44.732Z,209.20
2018-07-15T09:46:17.895Z,206.15
2018-07-15T09:48:49.059Z,211.28
2018-07-15T09:51:20.441Z,207.22
2018-07-15T09:53:51.614Z,204.93
2018-07-15T09:56:23.016Z,207.37
2018-07-15T09:58:54.473Z,196.02
2018-07-15T10:01:26.063Z,223.45
2018-07-15T10:03:57.504Z,209.03
2018-07-15T10:06:28.683Z,209.98
2018-07-15T10:09:00.010Z,203.83
2018-07-15T10:11:31.538Z,211.37
2018-07-15T10:14:02.882Z,215.72
2018-07-15T10:16:36.006Z,237.25
2018-07-15T10:19:07.664Z,219.75
2018-07-15T10:21:38.775Z,222.25
2018-07-15T10:24:09.906Z,222.63
2018-07-15T10:26:41.236Z,210.82
2018-07-15T10:29:12.303Z,214.10
2018-07-15T10:31:43.419Z,210.75
2018-07-15T10:34:14.932Z,222.37
2018-07-15T10:36:46.284Z,228.55
2018-07-15T10:39:17.387Z,214.68
2018-07-15T10:41:48.551Z,231.57
2018-07-15T10:44:19.833Z,234.00
2018-07-15T10:46:50.991Z,207.75
2018-07-15T10:49:22.948Z,224.27
2018-07-15T10:51:54.268Z,229.47
2018-07-15T10:54:25.589Z,229.97
2018-07-15T10:56:57.083Z,216.50
2018-07-15T10:59:28.564Z,228.60
2018-07-15T11:01:59.943Z,228.15
2018-07-15T11:04:32.047Z,234.75
2018-07-15T11:07:03.459Z,244.40
2018-07-15T11:09:34.599Z,224.98
2018-07-15T11:12:06.674Z,227.13
2018-07-15T11:14:38.349Z,212.90
2018-07-15T11:17:09.460Z,207.70
2018-07-15T11:19:40.671Z,222.65
2018-07-15T11:22:12.880Z,223.45
2018-07-15T11:24:44.936Z,214.10
2018-07-15T11:27:16.201Z,220.63
2018-07-15T11:29:47.373Z,214.80
2018-07-15T11:32:19.123Z,235.32
2018-07-15T11:34:50.297Z,226.60
2018-07-15T11:37:21.890Z,216.23
2018-07-15T11:39:53.189Z,218.17
2018-07-15T11:42:24.450Z,218.12
2018-07-15T11:44:55.458Z,217.93
2018-07-15T11:47:26.726Z,213.92
2018-07-15T11:49:57.973Z,207.60
2018-07-15T11:52:29.243Z,203.83
2018-07-15T11:55:00.459Z,200.45
2018-07-15T11:57:31.854Z,198.45
2018-07-15T12:00:05.720Z,208.78
2018-07-15T12:02:38.419Z,212.53
2018-07-15T12:05:12.489Z,208.17
2018-07-15T12:07:44.191Z,222.82
2018-07-15T12:10:15.262Z,208.23
2018-07-15T12:12:46.362Z,209.80
2018-07-15T12:15:20.846Z,201.02
2018-07-15T12:17:52.117Z,224.10
2018-07-15T12:20:23.539Z,203.00
2018-07-15T12:22:54.742Z,211.10
2018-07-15T12:25:27.007Z,212.30
2018-07-15T12:27:58.246Z,211.92
2018-07-15T12:30:30.661Z,205.57
2018-07-15T12:33:02.610Z,207.12
2018-07-15T12:35:34.258Z,213.35
2018-07-15T12:38:05.658Z,217.93
2018-07-15T12:40:37.469Z,217.90
2018-07-15T12:43:10.751Z,220.50
2018-07-15T12:45:41.808Z,210.13
2018-07-15T12:48:13.939Z,218.20
2018-07-15T12:50:44.987Z,212.95
2018-07-15T12:53:16.209Z,208.65
2018-07-15T12:55:47.382Z,211.97
2018-07-15T12:58:18.516Z,207.45
2018-07-15T13:00:49.844Z,211.00
2018-07-15T13:03:20.873Z,213.50
2018-07-15T13:05:51.955Z,215.65
2018-07-15T13:08:23.051Z,221.62
2018-07-15T13:10:54.182Z,214.50
2018-07-15T13:13:25.341Z,230.50
2018-07-15T13:15:56.687Z,223.85
2018-07-15T13:18:27.828Z,227.00
2018-07-15T13:20:59.044Z,218.10
2018-07-15T13:23:30.459Z,217.60
2018-07-15T13:26:01.896Z,223.03
2018-07-15T13:28:32.988Z,220.90
2018-07-15T13:31:04.116Z,218.30
2018-07-15T13:33:35.462Z,228.60
2018-07-15T13:36:06.585Z,226.85
2018-07-15T13:38:37.947Z,235.30
2018-07-15T13:41:09.269Z,217.18
2018-07-15T13:43:40.506Z,215.70
2018-07-15T13:46:11.669Z,230.00
2018-07-15T13:48:42.826Z,222.27
2018-07-15T13:51:13.944Z,216.73
2018-07-15T13:53:45.131Z,209.87
2018-07-15T13:56:16.947Z,217.70
2018-07-15T13:58:50.324Z,216.48
2018-07-15T14:01:23.878Z,215.70
2018-07-15T14:03:55.119Z,216.00
2018-07-15T14:06:26.141Z,223.70
2018-07-15T14:08:57.717Z,211.95
2018-07-15T14:11:28.807Z,212.95
2018-07-15T14:14:00.051Z,212.35
2018-07-15T14:16:31.386Z,208.20
2018-07-15T14:19:02.866Z,209.70
2018-07-15T14:21:34.110Z,210.85
2018-07-15T14:24:05.498Z,213.28
2018-07-15T14:26:36.545Z,207.55
2018-07-15T14:29:08.069Z,210.02
2018-07-15T14:31:39.036Z,210.25
2018-07-15T14:34:10.107Z,209.32
2018-07-15T14:36:41.073Z,214.00
2018-07-15T14:39:12.423Z,204.38
2018-07-15T14:41:44.999Z,211.52
2018-07-15T14:44:16.060Z,203.35
2018-07-15T14:46:47.123Z,206.87
2018-07-15T14:49:18.495Z,207.40
2018-07-15T14:51:49.491Z,218.88
2018-07-15T14:54:20.605Z,203.80
2018-07-15T14:56:51.954Z,208.63
2018-07-15T14:59:23.318Z,201.80
2018-07-15T15:01:55.272Z,204.65
2018-07-15T15:04:26.499Z,198.57
2018-07-15T15:06:57.903Z,211.10
2018-07-15T15:09:29.532Z,198.20
2018-07-15T15:12:01.303Z,198.35
2018-07-15T15:14:32.898Z,200.70
2018-07-15T15:17:03.852Z,197.13
2018-07-15T15:19:35.197Z,203.52
2018-07-15T15:22:06.743Z,199.60
2018-07-15T15:24:38.041Z,203.85
2018-07-15T15:27:09.157Z,198.00
2018-07-15T15:29:40.243Z,197.57
2018-07-15T15:32:11.443Z,195.00
2018-07-15T15:34:42.452Z,202.22
2018-07-15T15:37:13.477Z,194.50
2018-07-15T15:39:45.923Z,191.60
2018-07-15T15:42:32.890Z,192.13
2018-07-15T15:45:06.249Z,190.43
2018-07-15T15:47:38.883Z,191.98
2018-07-15T15:50:10.473Z,190.12
2018-07-15T15:52:45.823Z,198.47
2018-07-15T15:55:17.419Z,197.57
2018-07-15T15:57:50.053Z,194.75
2018-07-15T16:00:23.901Z,192.90
2018-07-15T16:02:56.826Z,196.10
2018-07-15T16:05:28.438Z,204.78
2018-07-15T16:08:01.748Z,195.40
2018-07-15T16:10:34.454Z,193.22
2018-07-15T16:13:08.040Z,191.18
2018-07-15T16:15:40.239Z,191.55
2018-07-15T16:18:12.492Z,195.35
2018-07-15T16:20:43.727Z,189.28
2018-07-15T16:23:14.996Z,197.25
2018-07-15T16:25:46.406Z,194.60
2018-07-15T16:28:17.567Z,190.85
2018-07-15T16:30:49.083Z,196.93
2018-07-15T16:33:20.927Z,192.57
2018-07-15T16:35:52.426Z,188.52
2018-07-15T16:38:23.680Z,193.25
2018-07-15T16:40:55.552Z,192.85
2018-07-15T16:43:26.860Z,186.07
2018-07-15T16:45:58.238Z,188.37
2018-07-15T16:48:29.772Z,189.52
2018-07-15T16:51:01.128Z,185.70
2018-07-15T16:53:35.789Z,182.53
2018-07-15T16:56:07.299Z,196.68
2018-07-15T16:58:38.736Z,189.37
2018-07-15T17:01:10.339Z,198.85
2018-07-15T17:03:42.102Z,198.00
2018-07-15T17:06:13.305Z,201.35
2018-07-15T17:08:45.012Z,200.97
2018-07-15T17:11:16.423Z,192.60
2018-07-15T17:13:48.271Z,196.87
2018-07-15T17:16:19.317Z,194.60
2018-07-15T17:18:50.637Z,196.87
2018-07-15T17:21:21.946Z,200.10
2018-07-15T17:23:53.132Z,196.22
2018-07-15T17:26:24.615Z,203.85
2018-07-15T17:28:56.695Z,200.87
2018-07-15T17:31:28.143Z,201.47
2018-07-15T17:33:59.452Z,238.72
2018-07-15T17:36:30.769Z,206.50
2018-07-15T17:39:03.455Z,195.65
2018-07-15T17:41:35.044Z,193.97
2018-07-15T17:44:06.494Z,198.20
2018-07-15T17:46:37.970Z,201.02
2018-07-15T17:49:09.943Z,196.07
2018-07-15T17:51:41.069Z,193.75
2018-07-15T17:54:12.465Z,197.20
2018-07-15T17:56:44.023Z,192.30
2018-07-15T17:59:16.782Z,193.17
2018-07-15T18:01:49.916Z,184.67
2018-07-15T18:04:21.425Z,190.38
2018-07-15T18:06:52.888Z,186.22
2018-07-15T18:09:24.870Z,187.25
2018-07-15T18:11:56.209Z,191.03
2018-07-15T18:14:28.009Z,190.53
2018-07-15T18:16:59.312Z,184.93
2018-07-15T18:19:30.680Z,180.57
2018-07-15T18:22:02.935Z,182.45
2018-07-15T18:24:35.252Z,188.15
2018-07-15T18:27:07.406Z,184.52
2018-07-15T18:29:39.672Z,187.88
2018-07-15T18:32:12.244Z,192.10
2018-07-15T18:34:45.968Z,193.05
2018-07-15T18:37:18.478Z,194.43
2018-07-15T18:39:50.283Z,187.07
2018-07-15T18:42:22.209Z,191.82
2018-07-15T18:44:54.293Z,193.87
2018-07-15T18:47:26.143Z,190.62
2018-07-15T18:49:58.006Z,194.15
2018-07-15T18:52:29.604Z,189.50
2018-07-15T18:55:02.407Z,190.35
2018-07-15T18:57:34.396Z,189.87
2018-07-15T19:00:09.555Z,190.53
2018-07-15T19:02:43.265Z,185.18
2018-07-15T19:05:19.517Z,187.12
2018-07-15T19:07:53.037Z,183.00
2018-07-15T19:10:24.791Z,184.95
2018-07-15T19:12:58.926Z,183.85
2018-07-15T19:15:32.605Z,183.90
2018-07-15T19:18:06.277Z,184.97
2018-07-15T19:20:39.522Z,188.25
2018-07-15T19:23:12.577Z,186.12
2018-07-15T19:25:46.208Z,182.97
2018-07-15T19:28:18.442Z,186.20
2018-07-15T19:30:50.056Z,237.00
2018-07-15T19:33:26.079Z,191.22
2018-07-15T19:35:57.764Z,193.47
2018-07-15T19:38:29.631Z,188.60
2018-07-15T19:41:02.091Z,191.65
2018-07-15T19:43:33.932Z,184.50
2018-07-15T19:46:06.273Z,186.67
2018-07-15T19:48:38.245Z,185.00
2018-07-15T19:51:10.602Z,191.32
2018-07-15T19:53:42.256Z,183.00
2018-07-15T19:56:13.827Z,189.22
2018-07-15T19:58:45.900Z,187.25
2018-07-15T20:01:17.329Z,188.37
2018-07-15T20:03:55.740Z,184.60
2018-07-15T20:06:27.457Z,191.98
2018-07-15T20:08:59.129Z,207.98
2018-07-15T20:11:30.857Z,189.25
2018-07-15T20:14:01.946Z,191.18
2018-07-15T20:16:33.405Z,185.75
2018-07-15T20:19:05.168Z,188.27
2018-07-15T20:21:36.452Z,185.07
2018-07-15T20:24:07.843Z,184.45
2018-07-15T20:26:39.219Z,190.90
2018-07-15T20:29:10.483Z,188.85
2018-07-15T20:32:00.637Z,176.90
2018-07-15T20:34:32.805Z,183.72
2018-07-15T20:37:04.351Z,182.00
2018-07-15T20:39:35.508Z,184.80
2018-07-15T20:42:07.903Z,183.70
2018-07-15T20:44:39.214Z,178.85
2018-07-15T20:47:11.497Z,184.52
2018-07-15T20:49:42.883Z,182.50
2018-07-15T20:52:14.144Z,183.27
2018-07-15T20:54:45.669Z,183.55
2018-07-15T20:57:17.259Z,186.88
2018-07-15T20:59:48.718Z,183.52
2018-07-15T21:02:19.775Z,189.77
2018-07-15T21:04:51.019Z,184.60
2018-07-15T21:07:22.472Z,183.15
2018-07-15T21:09:54.144Z,183.62
2018-07-15T21:12:25.329Z,184.82
2018-07-15T21:14:56.370Z,182.75
2018-07-15T21:17:27.664Z,183.12
2018-07-15T21:19:59.225Z,185.35
2018-07-15T21:22:30.982Z,184.90
2018-07-15T21:25:15.958Z,184.15
2018-07-15T21:27:48.259Z,181.35
2018-07-15T21:30:21.999Z,184.28
2018-07-15T21:32:54.787Z,184.48
2018-07-15T21:35:29.089Z,182.70
2018-07-15T21:38:00.659Z,184.80
2018-07-15T21:40:33.319Z,186.57
2018-07-15T21:43:05.999Z,184.37
2018-07-15T21:45:38.439Z,185.22
2018-07-15T21:48:12.376Z,182.57
2018-07-15T21:50:44.502Z,182.75
2018-07-15T21:53:15.467Z,183.45
2018-07-15T21:55:47.025Z,181.52
2018-07-15T21:58:18.192Z,179.05
2018-07-15T22:00:49.973Z,178.82
2018-07-15T22:03:21.284Z,181.18
2018-07-15T22:05:52.548Z,183.37
2018-07-15T22:08:34.410Z,180.05
2018-07-15T22:11:06.374Z,178.10
2018-07-15T22:13:37.826Z,180.05
2018-07-15T22:16:09.381Z,178.30
2018-07-15T22:18:40.395Z,178.02
2018-07-15T22:21:11.723Z,178.57
2018-07-15T22:23:42.851Z,178.75
2018-07-15T22:26:15.103Z,178.40
2018-07-15T22:28:46.399Z,177.45
2018-07-15T22:31:17.787Z,176.60
2018-07-15T22:33:48.811Z,180.45
2018-07-15T22:36:20.793Z,180.57
2018-07-15T22:38:52.031Z,176.82
2018-07-15T22:41:23.207Z,176.95
2018-07-15T22:43:54.880Z,178.12
2018-07-15T22:46:26.327Z,177.50
2018-07-15T22:48:57.675Z,179.78
2018-07-15T22:51:28.812Z,184.13
2018-07-15T22:53:59.922Z,182.47
2018-07-15T22:56:31.392Z,178.18
2018-07-15T22:59:02.633Z,185.82
2018-07-15T23:01:33.828Z,186.57
2018-07-15T23:04:04.997Z,180.85
2018-07-15T23:06:38.864Z,179.05
2018-07-15T23:09:11.056Z,182.35
2018-07-15T23:11:42.714Z,181.93
2018-07-15T23:14:13.752Z,181.00
2018-07-15T23:16:45.138Z,180.48
2018-07-15T23:19:16.452Z,180.27
2018-07-15T23:21:47.652Z,181.55
2018-07-15T23:24:18.587Z,182.20
2018-07-15T23:26:49.668Z,183.45
2018-07-15T23:29:21.090Z,187.20
2018-07-15T23:31:52.568Z,184.50
2018-07-15T23:34:23.640Z,183.60
2018-07-15T23:36:55.199Z,185.43
2018-07-15T23:39:26.284Z,181.75
2018-07-15T23:45:01.263Z,188.20
2018-07-15T23:47:34.664Z,186.67
2018-07-15T23:50:06.958Z,176.95
2018-07-15T23:52:37.982Z,180.45
2018-07-15T23:55:09.402Z,181.55
2018-07-15T23:57:40.317Z,177.00
